Aberlour, United Kingdom
Current Conditions -  °F | °C
As of 4:50 PM on Friday 31 Oct 2014 (Local Time) from EGQS Reporting Station
Broken Clouds Broken Clouds  
Wind Chill: 61°   Ceiling: 16000
Heat Index: 61°   Visibility: 6mi
Dew Point: 54°   Wind: 3mph
Humidity: 77%   Direction: 140°SE
Pressure: 29.56"   Gusts: NA
Location:  57.53°N, 3.21°W
Report Text: EGQS 311650Z 14003KT 9999 FEW040 BKN160 BKN210 16/12 Q1001 BLU
Loading
Personal Weather Stations






























Interactive Weather Map
Tropical Storm Tracking
New forecast layout! Learn more

10-Day Weather Forecast

Advertisements
Track Severe Weather on mobile